createdAt,value
2019-01-10T00:04:19.983Z,2.42
2019-01-10T00:06:48.787Z,2.37
2019-01-10T00:09:16.707Z,2.65
2019-01-10T00:12:04.063Z,2.75
2019-01-10T00:14:44.575Z,2.15
2019-01-10T00:17:32.030Z,1.80
2019-01-10T00:20:12.391Z,2.52
2019-01-10T00:22:59.812Z,2.90
2019-01-10T00:25:40.443Z,3.02
2019-01-10T00:28:27.941Z,3.40
2019-01-10T00:31:08.739Z,3.35
2019-01-10T00:33:49.091Z,2.22
2019-01-10T00:36:36.679Z,2.70
2019-01-10T00:39:18.058Z,2.90
2019-01-10T00:42:05.509Z,2.98
2019-01-10T00:44:33.754Z,3.12
2019-01-10T00:47:15.454Z,3.30
2019-01-10T00:49:57.083Z,2.22
2019-01-10T00:52:44.509Z,3.12
2019-01-10T00:55:25.105Z,2.42
2019-01-10T00:58:13.096Z,3.62
2019-01-10T01:00:54.224Z,2.95
2019-01-10T01:03:22.353Z,3.27
2019-01-10T01:05:50.294Z,2.25
2019-01-10T01:08:31.293Z,3.20
2019-01-10T01:11:18.679Z,3.10
2019-01-10T01:13:46.629Z,2.58
2019-01-10T01:16:34.227Z,2.42
2019-01-10T01:19:14.817Z,2.87
2019-01-10T01:22:02.253Z,3.40
2019-01-10T01:24:43.298Z,2.70
2019-01-10T01:27:24.273Z,2.62
2019-01-10T01:30:14.160Z,2.72
2019-01-10T01:32:42.126Z,3.10
2019-01-10T01:35:29.705Z,3.10
2019-01-10T01:38:11.495Z,3.10
2019-01-10T01:40:39.431Z,2.92
2019-01-10T01:43:20.104Z,2.83
2019-01-10T01:45:47.988Z,2.85
2019-01-10T01:48:15.946Z,2.47
2019-01-10T01:50:43.801Z,3.15
2019-01-10T01:53:11.728Z,3.30
2019-01-10T01:55:39.600Z,2.75
2019-01-10T01:58:07.507Z,3.08
2019-01-10T02:00:35.674Z,2.98
2019-01-10T02:03:17.060Z,3.27
2019-01-10T02:06:04.411Z,2.92
2019-01-10T02:08:44.931Z,2.45
2019-01-10T02:11:32.278Z,2.47
2019-01-10T02:14:13.180Z,2.40
2019-01-10T02:17:00.606Z,3.40
2019-01-10T02:19:44.611Z,3.22
2019-01-10T02:22:32.404Z,3.05
2019-01-10T02:25:13.389Z,3.33
2019-01-10T02:28:01.118Z,2.67
2019-01-10T02:30:42.076Z,3.45
2019-01-10T02:33:10.296Z,3.60
2019-01-10T02:35:38.203Z,3.30
2019-01-10T02:38:26.460Z,3.72
2019-01-10T02:41:07.086Z,3.30
2019-01-10T02:43:54.497Z,3.08
2019-01-10T02:46:34.689Z,3.05
2019-01-10T02:49:15.558Z,3.37
2019-01-10T02:52:03.479Z,2.52
2019-01-10T02:54:44.107Z,3.00
2019-01-10T02:57:32.453Z,3.20
2019-01-10T03:00:00.382Z,2.87
2019-01-10T03:02:28.355Z,2.92
2019-01-10T03:04:56.392Z,2.58
2019-01-10T03:07:24.340Z,3.30
2019-01-10T03:10:07.241Z,2.80
2019-01-10T03:12:54.595Z,3.22
2019-01-10T03:15:34.945Z,2.87
2019-01-10T03:18:22.512Z,2.98
2019-01-10T03:20:52.621Z,2.62
2019-01-10T03:23:40.046Z,3.15
2019-01-10T03:26:20.150Z,3.30
2019-01-10T03:28:48.032Z,2.60
2019-01-10T03:31:35.406Z,2.90
2019-01-10T03:34:16.488Z,1.87
2019-01-10T03:36:57.253Z,2.80
2019-01-10T03:39:37.338Z,2.70
2019-01-10T03:42:24.833Z,2.40
2019-01-10T03:45:06.718Z,2.45
2019-01-10T03:47:34.700Z,3.47
2019-01-10T03:50:15.988Z,2.10
2019-01-10T03:53:03.347Z,2.70
2019-01-10T03:55:44.189Z,2.08
2019-01-10T03:58:31.573Z,2.92
2019-01-10T04:01:11.827Z,3.20
2019-01-10T04:03:59.179Z,2.70
2019-01-10T04:06:27.108Z,3.65
2019-01-10T04:08:54.997Z,3.05
2019-01-10T04:11:35.169Z,2.58
2019-01-10T04:14:22.755Z,3.42
2019-01-10T04:17:03.450Z,3.27
2019-01-10T04:19:50.832Z,2.80
2019-01-10T04:22:18.846Z,3.15
2019-01-10T04:24:46.846Z,3.47
2019-01-10T04:27:27.270Z,2.80
2019-01-10T04:30:10.600Z,3.70
2019-01-10T04:32:51.538Z,3.15
2019-01-10T04:35:32.766Z,2.42
2019-01-10T04:38:21.029Z,2.90
2019-01-10T04:41:04.125Z,3.17
2019-01-10T04:43:51.567Z,3.30
2019-01-10T04:46:32.526Z,3.67
2019-01-10T04:49:00.450Z,3.80
2019-01-10T04:51:28.471Z,3.95
2019-01-10T04:54:16.377Z,3.30
2019-01-10T04:56:44.257Z,4.05
2019-01-10T04:59:12.369Z,4.17
2019-01-10T05:01:53.319Z,4.53
2019-01-10T05:04:21.265Z,4.12
2019-01-10T05:06:49.383Z,4.05
2019-01-10T05:09:17.221Z,3.75
2019-01-10T05:11:45.120Z,4.67
2019-01-10T05:14:16.651Z,3.67
2019-01-10T05:16:56.924Z,4.67
2019-01-10T05:19:24.814Z,3.35
2019-01-10T05:21:52.773Z,3.52
2019-01-10T05:24:20.594Z,4.05
2019-01-10T05:26:48.570Z,5.33
2019-01-10T05:29:16.649Z,4.10
2019-01-10T05:31:44.495Z,4.30
2019-01-10T05:34:12.402Z,4.72
2019-01-10T05:37:00.060Z,4.15
2019-01-10T05:39:47.464Z,4.70
2019-01-10T05:42:31.352Z,4.00
2019-01-10T05:45:12.103Z,4.10
2019-01-10T05:48:00.528Z,3.72
2019-01-10T05:50:40.911Z,4.20
2019-01-10T05:53:08.827Z,3.55
2019-01-10T05:55:36.831Z,4.75
2019-01-10T05:58:04.750Z,3.75
2019-01-10T06:00:47.262Z,3.50
2019-01-10T06:03:15.311Z,4.30
2019-01-10T06:05:43.276Z,4.22
2019-01-10T06:08:30.831Z,4.20
2019-01-10T06:11:11.180Z,4.40
2019-01-10T06:13:58.560Z,4.45
2019-01-10T06:16:37.592Z,4.20
2019-01-10T06:19:26.872Z,3.95
2019-01-10T06:22:13.613Z,3.70
2019-01-10T06:24:41.631Z,3.30
2019-01-10T06:27:22.365Z,3.90
2019-01-10T06:29:50.378Z,4.08
2019-01-10T06:32:18.287Z,5.85
2019-01-10T06:34:46.243Z,4.15
2019-01-10T06:37:33.615Z,3.75
2019-01-10T06:40:14.865Z,4.53
2019-01-10T06:43:02.268Z,5.12
2019-01-10T06:45:42.509Z,2.50
2019-01-10T06:48:10.408Z,2.65
2019-01-10T06:50:50.565Z,2.72
2019-01-10T06:53:18.503Z,3.08
2019-01-10T06:55:59.046Z,2.55
2019-01-10T06:58:27.006Z,3.52
2019-01-10T07:00:54.906Z,3.62
2019-01-10T07:03:22.873Z,3.90
2019-01-10T07:05:50.994Z,4.70
2019-01-10T07:08:33.907Z,3.85
2019-01-10T07:11:21.333Z,4.60
2019-01-10T07:14:02.413Z,4.10
2019-01-10T07:16:43.004Z,3.60
2019-01-10T07:19:49.992Z,3.77
2019-01-10T07:22:30.012Z,4.33
2019-01-10T07:25:17.616Z,2.77
2019-01-10T07:28:02.927Z,4.10
2019-01-10T07:30:50.835Z,3.95
2019-01-10T07:33:32.298Z,4.10
2019-01-10T07:36:20.154Z,3.70
2019-01-10T07:39:01.249Z,3.72
2019-01-10T07:41:29.313Z,4.15
2019-01-10T07:44:38.268Z,3.30
2019-01-10T07:47:08.198Z,4.12
2019-01-10T07:49:57.557Z,3.35
2019-01-10T07:52:25.535Z,3.50
2019-01-10T07:55:13.276Z,4.40
2019-01-10T07:57:41.294Z,2.83
2019-01-10T08:00:09.594Z,3.70
2019-01-10T08:02:51.151Z,3.95
2019-01-10T08:05:38.628Z,3.10
2019-01-10T08:08:19.054Z,2.77
2019-01-10T08:10:46.978Z,2.72
2019-01-10T08:13:15.068Z,3.50
2019-01-10T08:16:03.240Z,3.10
2019-01-10T08:18:44.243Z,4.05
2019-01-10T08:21:24.222Z,3.20
2019-01-10T08:24:04.845Z,3.02
2019-01-10T08:26:52.365Z,2.25
2019-01-10T08:29:33.594Z,3.70
2019-01-10T08:32:21.146Z,2.52
2019-01-10T08:35:01.635Z,1.55
2019-01-10T08:37:49.068Z,2.83
2019-01-10T08:40:29.501Z,3.37
2019-01-10T08:43:17.021Z,3.35
2019-01-10T08:45:44.967Z,2.80
2019-01-10T08:48:33.184Z,3.37
2019-01-10T08:51:13.880Z,3.50
2019-01-10T08:53:42.095Z,3.72
2019-01-10T08:56:22.659Z,3.10
2019-01-10T08:58:50.646Z,3.40
2019-01-10T09:01:18.582Z,3.27
2019-01-10T09:03:46.586Z,4.20
2019-01-10T09:06:14.624Z,3.35
2019-01-10T09:08:56.696Z,3.70
2019-01-10T09:11:44.111Z,3.40
2019-01-10T09:14:25.783Z,5.65
2019-01-10T09:16:53.808Z,4.17
2019-01-10T09:19:21.826Z,3.45
2019-01-10T09:22:09.274Z,3.25
2019-01-10T09:24:56.729Z,3.80
2019-01-10T09:27:37.863Z,5.15
2019-01-10T09:30:19.612Z,4.60
2019-01-10T09:33:01.339Z,5.03
2019-01-10T09:35:29.361Z,9.78
2019-01-10T09:37:57.337Z,5.30
2019-01-10T09:40:25.404Z,4.50
2019-01-10T09:42:53.391Z,4.47
2019-01-10T09:45:43.502Z,4.33
2019-01-10T09:48:24.588Z,3.87
2019-01-10T09:51:12.016Z,3.90
2019-01-10T09:53:55.798Z,4.75
2019-01-10T09:56:43.443Z,4.42
2019-01-10T09:59:24.145Z,4.42
2019-01-10T10:02:11.599Z,4.28
2019-01-10T10:04:52.296Z,3.62
2019-01-10T10:07:40.017Z,3.20
2019-01-10T10:10:20.784Z,3.98
2019-01-10T10:13:08.303Z,3.90
2019-01-10T10:15:52.624Z,5.15
2019-01-10T10:18:39.795Z,3.85
2019-01-10T10:21:20.568Z,1.82
2019-01-10T10:23:48.825Z,3.25
2019-01-10T10:26:29.958Z,3.72
2019-01-10T10:28:57.976Z,3.58
2019-01-10T10:31:45.556Z,3.80
2019-01-10T10:34:26.036Z,4.30
2019-01-10T10:37:13.523Z,3.85
2019-01-10T10:39:54.819Z,4.05
2019-01-10T10:42:42.456Z,3.80
2019-01-10T10:45:22.868Z,4.25
2019-01-10T10:48:13.565Z,5.25
2019-01-10T10:50:59.478Z,3.92
2019-01-10T10:53:49.519Z,4.28
2019-01-10T10:56:30.827Z,4.45
2019-01-10T10:59:11.226Z,5.08
2019-01-10T11:01:58.713Z,4.60
2019-01-10T11:04:26.763Z,5.10
2019-01-10T11:06:54.783Z,3.70
2019-01-10T11:09:22.827Z,3.10
2019-01-10T11:12:04.827Z,2.85
2019-01-10T11:14:52.764Z,3.20
2019-01-10T11:17:32.948Z,3.40
2019-01-10T11:20:21.932Z,3.30
2019-01-10T11:22:50.085Z,3.67
2019-01-10T11:25:23.059Z,3.10
2019-01-10T11:27:51.056Z,3.50
2019-01-10T11:30:31.828Z,3.50
2019-01-10T11:33:19.185Z,3.90
2019-01-10T11:35:59.899Z,3.80
2019-01-10T11:38:47.436Z,4.35
2019-01-10T11:41:27.686Z,2.67
2019-01-10T11:44:07.890Z,3.33
2019-01-10T11:46:35.858Z,3.50
2019-01-10T11:49:03.857Z,3.02
2019-01-10T11:51:51.379Z,3.58
2019-01-10T11:54:32.764Z,3.67
2019-01-10T11:57:00.758Z,3.70
2019-01-10T11:59:29.556Z,2.92
2019-01-10T12:02:17.213Z,3.65
2019-01-10T12:04:45.164Z,3.50
2019-01-10T12:07:32.557Z,2.92
2019-01-10T12:10:00.726Z,3.55
2019-01-10T12:12:28.667Z,3.90
2019-01-10T12:15:09.436Z,3.33
2019-01-10T12:17:57.075Z,3.35
2019-01-10T12:20:25.099Z,3.70
2019-01-10T12:22:53.059Z,4.17
2019-01-10T12:25:34.869Z,3.95
2019-01-10T12:28:22.541Z,3.52
2019-01-10T12:31:03.198Z,4.10
2019-01-10T12:33:50.905Z,3.80
2019-01-10T12:36:19.729Z,4.15
2019-01-10T12:39:07.449Z,3.72
2019-01-10T12:41:35.496Z,4.05
2019-01-10T12:44:23.084Z,4.00
2019-01-10T12:47:03.516Z,3.72
2019-01-10T12:49:50.981Z,3.60
2019-01-10T12:52:35.230Z,2.95
2019-01-10T12:55:21.172Z,3.45
2019-01-10T12:57:49.123Z,3.55
2019-01-10T13:00:36.732Z,3.65
2019-01-10T13:03:16.793Z,3.67
2019-01-10T13:06:04.371Z,3.87
2019-01-10T13:08:32.410Z,3.67
2019-01-10T13:11:22.057Z,4.28
2019-01-10T13:14:05.522Z,3.50
2019-01-10T13:16:51.477Z,3.95
2019-01-10T13:19:33.252Z,3.50
2019-01-10T13:22:13.911Z,3.90
2019-01-10T13:24:54.078Z,3.70
2019-01-10T13:27:41.497Z,3.80
2019-01-10T13:30:23.197Z,3.70
2019-01-10T13:33:10.916Z,3.77
2019-01-10T13:35:51.802Z,3.60
2019-01-10T13:38:39.413Z,4.30
2019-01-10T13:41:20.177Z,3.40
2019-01-10T13:43:48.134Z,3.33
2019-01-10T13:46:16.183Z,3.72
2019-01-10T13:48:44.300Z,4.10
2019-01-10T13:51:13.273Z,3.65
2019-01-10T13:53:41.347Z,4.30
2019-01-10T13:56:22.735Z,3.45
2019-01-10T13:58:50.723Z,3.75
2019-01-10T14:01:31.670Z,3.10
2019-01-10T14:04:19.333Z,3.10
2019-01-10T14:07:00.280Z,3.40
2019-01-10T14:09:28.388Z,3.40
2019-01-10T14:12:09.477Z,3.12
2019-01-10T14:14:37.614Z,3.30
2019-01-10T14:17:18.496Z,2.80
2019-01-10T14:20:06.451Z,3.02
2019-01-10T14:22:47.308Z,3.08
2019-01-10T14:25:16.176Z,3.50
2019-01-10T14:28:00.235Z,2.50
2019-01-10T14:30:46.714Z,2.80
2019-01-10T14:33:14.807Z,2.87
2019-01-10T14:35:42.874Z,2.40
2019-01-10T14:38:24.283Z,2.10
2019-01-10T14:41:11.928Z,2.60
2019-01-10T14:43:40.104Z,2.40
2019-01-10T14:46:27.646Z,2.52
2019-01-10T14:48:55.581Z,2.17
2019-01-10T14:51:23.756Z,2.30
2019-01-10T14:53:51.719Z,2.40
2019-01-10T14:56:21.718Z,2.10
2019-01-10T14:59:03.903Z,2.20
2019-01-10T15:01:32.342Z,2.20
2019-01-10T15:04:00.364Z,1.80
2019-01-10T15:06:28.390Z,1.60
2019-01-10T15:08:56.484Z,2.00
2019-01-10T15:11:24.584Z,1.50
2019-01-10T15:14:07.220Z,2.10
2019-01-10T15:16:35.211Z,1.85
2019-01-10T15:19:15.872Z,1.90
2019-01-10T15:22:04.592Z,1.80
2019-01-10T15:24:32.602Z,1.75
2019-01-10T15:27:00.701Z,2.75
2019-01-10T15:29:28.619Z,1.92
2019-01-10T15:32:16.299Z,1.32
2019-01-10T15:34:56.486Z,1.90
2019-01-10T15:37:24.476Z,2.20
2019-01-10T15:39:52.767Z,3.05
2019-01-10T15:42:21.166Z,3.33
2019-01-10T15:44:49.517Z,1.90
2019-01-10T15:47:19.870Z,4.00
2019-01-10T15:49:47.571Z,3.02
2019-01-10T15:52:15.743Z,3.55
2019-01-10T15:55:03.955Z,3.65
2019-01-10T15:57:32.108Z,2.58
2019-01-10T16:00:21.181Z,3.40
2019-01-10T16:03:01.840Z,3.12
2019-01-10T16:05:49.415Z,3.67
2019-01-10T16:08:30.806Z,3.15
2019-01-10T16:10:58.704Z,3.95
2019-01-10T16:13:41.214Z,3.50
2019-01-10T16:16:29.011Z,2.83
2019-01-10T16:19:13.131Z,2.95
2019-01-10T16:21:54.269Z,3.30
2019-01-10T16:24:35.736Z,2.75
2019-01-10T16:27:23.678Z,3.55
2019-01-10T16:30:05.965Z,3.15
2019-01-10T16:32:53.579Z,3.50
2019-01-10T16:35:35.642Z,3.30
2019-01-10T16:38:17.009Z,3.10
2019-01-10T16:41:04.406Z,2.67
2019-01-10T16:43:45.053Z,3.20
2019-01-10T16:46:32.514Z,2.80
2019-01-10T16:49:12.988Z,2.95
2019-01-10T16:52:00.661Z,3.10
2019-01-10T16:54:40.989Z,3.02
2019-01-10T16:57:28.467Z,2.95
2019-01-10T17:00:13.028Z,3.40
2019-01-10T17:03:00.716Z,3.60
2019-01-10T17:05:41.220Z,3.00
2019-01-10T17:08:29.023Z,2.90
2019-01-10T17:11:09.444Z,2.95
2019-01-10T17:13:56.952Z,3.40
2019-01-10T17:16:38.412Z,2.72
2019-01-10T17:19:26.228Z,3.15
2019-01-10T17:22:07.301Z,3.22
2019-01-10T17:24:35.720Z,3.17
2019-01-10T17:27:03.741Z,3.47
2019-01-10T17:29:31.966Z,3.65
2019-01-10T17:32:00.378Z,3.87
2019-01-10T17:34:28.792Z,3.33
2019-01-10T17:37:16.271Z,2.90
2019-01-10T17:39:56.671Z,3.02
2019-01-10T17:49:03.313Z,3.80
2019-01-10T17:51:50.958Z,3.55
2019-01-10T17:54:31.191Z,3.30
2019-01-10T17:57:18.654Z,3.55
2019-01-10T17:59:59.486Z,3.10
2019-01-10T18:02:47.220Z,3.35
2019-01-10T18:05:28.312Z,3.12
2019-01-10T18:08:35.617Z,3.30
2019-01-10T18:11:17.143Z,3.90
2019-01-10T18:14:04.772Z,3.75
2019-01-10T18:16:45.287Z,3.15
2019-01-10T18:19:33.180Z,4.08
2019-01-10T18:22:16.118Z,4.03
2019-01-10T18:24:44.391Z,4.00
2019-01-10T18:27:31.956Z,3.15
2019-01-10T18:30:04.045Z,3.50
2019-01-10T18:32:32.388Z,3.20
2019-01-10T18:35:13.872Z,3.50
2019-01-10T18:37:58.487Z,4.70
2019-01-10T18:40:46.114Z,4.08
2019-01-10T18:43:27.203Z,3.80
2019-01-10T18:45:55.198Z,4.25
2019-01-10T18:48:23.332Z,4.45
2019-01-10T18:51:10.797Z,4.30
2019-01-10T18:53:52.202Z,3.70
2019-01-10T18:56:39.933Z,3.75
2019-01-10T18:59:20.807Z,3.75
2019-01-10T19:02:08.428Z,4.70
2019-01-10T19:04:49.499Z,4.30
2019-01-10T19:07:36.941Z,4.42
2019-01-10T19:10:18.198Z,4.95
2019-01-10T19:13:05.981Z,4.92
2019-01-10T19:15:47.078Z,5.30
2019-01-10T19:18:34.667Z,4.85
2019-01-10T19:21:14.791Z,5.58
2019-01-10T19:23:55.206Z,4.85
2019-01-10T19:26:43.194Z,5.20
2019-01-10T19:29:23.381Z,5.33
2019-01-10T19:32:03.637Z,5.20
2019-01-10T19:34:44.769Z,5.22
2019-01-10T19:37:32.296Z,6.03
2019-01-10T19:40:01.060Z,5.05
2019-01-10T19:42:49.243Z,4.53
2019-01-10T19:45:29.563Z,4.90
2019-01-10T19:48:17.212Z,5.42
2019-01-10T19:50:57.375Z,4.50
2019-01-10T19:53:45.161Z,5.62
2019-01-10T19:56:25.678Z,4.95
2019-01-10T19:59:13.418Z,4.60
2019-01-10T20:01:54.423Z,4.92
2019-01-10T20:04:23.495Z,4.92
2019-01-10T20:06:51.657Z,5.10
2019-01-10T20:09:39.263Z,4.45
2019-01-10T20:12:19.520Z,5.20
2019-01-10T20:15:07.279Z,5.10
2019-01-10T20:17:35.626Z,5.55
2019-01-10T20:20:21.426Z,5.20
2019-01-10T20:23:06.293Z,4.92
2019-01-10T20:25:46.740Z,5.22
2019-01-10T20:28:34.517Z,5.85
2019-01-10T20:31:15.083Z,6.90
2019-01-10T20:34:02.835Z,6.25
2019-01-10T20:36:43.738Z,5.80
2019-01-10T20:39:25.059Z,6.15
2019-01-10T20:44:48.928Z,6.50
2019-01-10T20:47:29.719Z,6.53
2019-01-10T20:50:17.815Z,5.55
2019-01-10T20:52:46.001Z,5.87
2019-01-10T20:55:33.595Z,6.47
2019-01-10T20:58:14.306Z,6.08
2019-01-10T21:01:03.342Z,6.33
2019-01-10T21:03:32.631Z,5.78
2019-01-10T21:06:15.619Z,5.10
2019-01-10T21:08:43.658Z,5.67
2019-01-10T21:11:12.730Z,6.33
2019-01-10T21:14:00.247Z,6.50
2019-01-10T21:16:28.441Z,5.95
2019-01-10T21:18:56.534Z,6.10
2019-01-10T21:21:40.504Z,6.60
2019-01-10T21:24:28.128Z,6.62
2019-01-10T21:27:08.844Z,6.83
2019-01-10T21:29:56.662Z,6.05
2019-01-10T21:32:40.844Z,7.03
2019-01-10T21:35:27.135Z,7.97
2019-01-10T21:38:07.413Z,6.30
2019-01-10T21:40:35.621Z,6.80
2019-01-10T21:43:16.588Z,6.67
2019-01-10T21:46:04.407Z,6.92
2019-01-10T21:48:46.827Z,6.53
2019-01-10T21:51:14.934Z,6.87
2019-01-10T21:53:56.490Z,6.40
2019-01-10T21:56:24.695Z,7.22
2019-01-10T21:58:52.827Z,6.85
2019-01-10T22:01:20.836Z,7.58
2019-01-10T22:04:03.489Z,7.10
2019-01-10T22:06:51.490Z,6.92
2019-01-10T22:09:34.223Z,6.85
2019-01-10T22:12:22.256Z,7.03
2019-01-10T22:15:03.798Z,6.47
2019-01-10T22:18:04.156Z,6.92
2019-01-10T22:20:51.827Z,7.05
2019-01-10T22:23:32.275Z,7.25
2019-01-10T22:26:19.855Z,7.22
2019-01-10T22:29:00.921Z,6.50
2019-01-10T22:31:48.580Z,6.55
2019-01-10T22:34:28.955Z,6.75
2019-01-10T22:37:16.559Z,6.35
2019-01-10T22:39:44.596Z,6.78
2019-01-10T22:42:25.890Z,5.95
2019-01-10T22:44:53.890Z,6.03
2019-01-10T22:47:22.032Z,6.35
2019-01-10T22:50:10.825Z,5.55
2019-01-10T22:52:51.551Z,6.90
2019-01-10T22:55:39.332Z,6.00
2019-01-10T22:58:19.899Z,6.33
2019-01-10T23:01:52.356Z,6.40
2019-01-10T23:04:34.469Z,5.40
2019-01-10T23:07:22.688Z,4.70
2019-01-10T23:10:05.422Z,5.20
2019-01-10T23:12:45.875Z,6.03
2019-01-10T23:15:34.527Z,4.70
2019-01-10T23:18:15.126Z,4.95
2019-01-10T23:20:43.223Z,4.47
2019-01-10T23:23:24.264Z,4.83
2019-01-10T23:25:53.821Z,5.30
2019-01-10T23:28:38.223Z,4.70
2019-01-10T23:31:25.697Z,4.60
2019-01-10T23:34:09.571Z,5.00
2019-01-10T23:36:56.981Z,4.90
2019-01-10T23:39:36.005Z,5.22
2019-01-10T23:42:04.035Z,5.30
2019-01-10T23:44:32.222Z,5.53
2019-01-10T23:47:00.140Z,4.95
2019-01-10T23:49:42.004Z,5.15
2019-01-10T23:52:30.070Z,5.37
2019-01-10T23:55:09.625Z,5.10
2019-01-10T23:57:37.750Z,5.55
